sensor_id;sensor_type;location;lat;lon;timestamp;P1;durP1;ratioP1;P2;durP2;ratioP2
50759;SDS011;36733;48.442;-4.470;2023-07-13T00:00:17;9.73;;;1.92;;
50759;SDS011;36733;48.442;-4.470;2023-07-13T00:02:43;9.27;;;1.48;;
50759;SDS011;36733;48.442;-4.470;2023-07-13T00:05:09;6.03;;;1.47;;
50759;SDS011;36733;48.442;-4.470;2023-07-13T00:07:35;6.30;;;1.55;;
50759;SDS011;36733;48.442;-4.470;2023-07-13T00:10:01;5.20;;;1.30;;
50759;SDS011;36733;48.442;-4.470;2023-07-13T00:12:29;10.55;;;2.60;;
50759;SDS011;36733;48.442;-4.470;2023-07-13T00:14:57;7.57;;;1.67;;
50759;SDS011;36733;48.442;-4.470;2023-07-13T00:19:48;11.90;;;1.77;;
50759;SDS011;36733;48.442;-4.470;2023-07-13T00:22:14;11.20;;;2.53;;
50759;SDS011;36733;48.442;-4.470;2023-07-13T00:24:39;6.70;;;1.83;;
50759;SDS011;36733;48.442;-4.470;2023-07-13T00:27:07;9.15;;;1.83;;
50759;SDS011;36733;48.442;-4.470;2023-07-13T00:29:35;7.00;;;1.85;;
50759;SDS011;36733;48.442;-4.470;2023-07-13T00:32:02;8.30;;;2.28;;
50759;SDS011;36733;48.442;-4.470;2023-07-13T00:34:31;12.15;;;2.70;;
50759;SDS011;36733;48.442;-4.470;2023-07-13T00:36:56;12.75;;;2.65;;
50759;SDS011;36733;48.442;-4.470;2023-07-13T00:39:22;7.23;;;1.90;;
50759;SDS011;36733;48.442;-4.470;2023-07-13T00:41:48;11.13;;;2.33;;
50759;SDS011;36733;48.442;-4.470;2023-07-13T00:44:14;8.65;;;1.98;;
50759;SDS011;36733;48.442;-4.470;2023-07-13T00:46:41;9.00;;;1.92;;
50759;SDS011;36733;48.442;-4.470;2023-07-13T00:49:07;8.98;;;1.83;;
50759;SDS011;36733;48.442;-4.470;2023-07-13T00:51:36;11.68;;;2.38;;
50759;SDS011;36733;48.442;-4.470;2023-07-13T00:54:39;9.38;;;1.77;;
50759;SDS011;36733;48.442;-4.470;2023-07-13T00:57:07;15.07;;;2.35;;
50759;SDS011;36733;48.442;-4.470;2023-07-13T00:59:37;12.68;;;2.40;;
50759;SDS011;36733;48.442;-4.470;2023-07-13T01:02:05;12.05;;;2.35;;
50759;SDS011;36733;48.442;-4.470;2023-07-13T01:04:30;4.97;;;1.57;;
50759;SDS011;36733;48.442;-4.470;2023-07-13T01:06:56;7.37;;;1.60;;
50759;SDS011;36733;48.442;-4.470;2023-07-13T01:09:22;9.55;;;1.90;;
50759;SDS011;36733;48.442;-4.470;2023-07-13T01:11:47;7.00;;;1.83;;
50759;SDS011;36733;48.442;-4.470;2023-07-13T01:14:13;13.32;;;2.45;;
50759;SDS011;36733;48.442;-4.470;2023-07-13T01:16:40;6.97;;;1.65;;
50759;SDS011;36733;48.442;-4.470;2023-07-13T01:19:12;6.22;;;1.60;;
50759;SDS011;36733;48.442;-4.470;2023-07-13T01:21:50;6.40;;;1.70;;
50759;SDS011;36733;48.442;-4.470;2023-07-13T01:24:17;14.15;;;1.92;;
50759;SDS011;36733;48.442;-4.470;2023-07-13T01:26:42;6.50;;;1.57;;
50759;SDS011;36733;48.442;-4.470;2023-07-13T01:29:08;7.40;;;1.53;;
50759;SDS011;36733;48.442;-4.470;2023-07-13T01:31:33;7.67;;;1.93;;
50759;SDS011;36733;48.442;-4.470;2023-07-13T01:33:59;5.20;;;1.87;;
50759;SDS011;36733;48.442;-4.470;2023-07-13T01:36:24;9.13;;;2.07;;
50759;SDS011;36733;48.442;-4.470;2023-07-13T01:38:50;6.82;;;1.55;;
50759;SDS011;36733;48.442;-4.470;2023-07-13T01:41:15;6.05;;;1.67;;
50759;SDS011;36733;48.442;-4.470;2023-07-13T01:43:41;6.70;;;1.37;;
50759;SDS011;36733;48.442;-4.470;2023-07-13T01:46:06;9.27;;;1.60;;
50759;SDS011;36733;48.442;-4.470;2023-07-13T01:48:32;8.67;;;1.83;;
50759;SDS011;36733;48.442;-4.470;2023-07-13T01:50:57;6.10;;;1.50;;
50759;SDS011;36733;48.442;-4.470;2023-07-13T01:53:22;5.07;;;1.33;;
50759;SDS011;36733;48.442;-4.470;2023-07-13T01:55:48;4.70;;;1.67;;
50759;SDS011;36733;48.442;-4.470;2023-07-13T01:58:14;3.93;;;1.50;;
50759;SDS011;36733;48.442;-4.470;2023-07-13T02:00:39;8.73;;;1.73;;
50759;SDS011;36733;48.442;-4.470;2023-07-13T02:03:04;9.37;;;1.50;;
50759;SDS011;36733;48.442;-4.470;2023-07-13T02:05:30;3.17;;;1.50;;
50759;SDS011;36733;48.442;-4.470;2023-07-13T02:07:55;4.33;;;1.40;;
50759;SDS011;36733;48.442;-4.470;2023-07-13T02:10:21;8.67;;;1.60;;
50759;SDS011;36733;48.442;-4.470;2023-07-13T02:12:47;8.73;;;1.40;;
50759;SDS011;36733;48.442;-4.470;2023-07-13T02:15:13;6.30;;;1.67;;
50759;SDS011;36733;48.442;-4.470;2023-07-13T02:17:39;10.52;;;1.70;;
50759;SDS011;36733;48.442;-4.470;2023-07-13T02:20:05;5.57;;;1.50;;
50759;SDS011;36733;48.442;-4.470;2023-07-13T02:24:56;7.13;;;1.20;;
50759;SDS011;36733;48.442;-4.470;2023-07-13T02:27:22;5.60;;;1.30;;
50759;SDS011;36733;48.442;-4.470;2023-07-13T02:29:47;6.37;;;1.73;;
50759;SDS011;36733;48.442;-4.470;2023-07-13T02:32:13;6.90;;;1.83;;
50759;SDS011;36733;48.442;-4.470;2023-07-13T02:34:40;5.77;;;1.30;;
50759;SDS011;36733;48.442;-4.470;2023-07-13T02:37:07;2.95;;;1.25;;
50759;SDS011;36733;48.442;-4.470;2023-07-13T02:39:32;6.23;;;1.50;;
50759;SDS011;36733;48.442;-4.470;2023-07-13T02:41:58;11.97;;;1.90;;
50759;SDS011;36733;48.442;-4.470;2023-07-13T02:44:24;5.50;;;1.63;;
50759;SDS011;36733;48.442;-4.470;2023-07-13T02:46:49;6.17;;;1.80;;
50759;SDS011;36733;48.442;-4.470;2023-07-13T02:49:15;7.00;;;1.77;;
50759;SDS011;36733;48.442;-4.470;2023-07-13T02:51:40;6.77;;;1.80;;
50759;SDS011;36733;48.442;-4.470;2023-07-13T02:54:05;9.07;;;2.10;;
50759;SDS011;36733;48.442;-4.470;2023-07-13T02:56:33;9.88;;;1.50;;
50759;SDS011;36733;48.442;-4.470;2023-07-13T02:58:58;6.30;;;1.60;;
50759;SDS011;36733;48.442;-4.470;2023-07-13T03:01:24;5.27;;;1.40;;
50759;SDS011;36733;48.442;-4.470;2023-07-13T03:03:50;7.38;;;1.50;;
50759;SDS011;36733;48.442;-4.470;2023-07-13T03:06:16;7.05;;;1.38;;
50759;SDS011;36733;48.442;-4.470;2023-07-13T03:08:43;5.93;;;1.67;;
50759;SDS011;36733;48.442;-4.470;2023-07-13T03:11:13;7.53;;;2.03;;
50759;SDS011;36733;48.442;-4.470;2023-07-13T03:13:40;8.30;;;1.70;;
50759;SDS011;36733;48.442;-4.470;2023-07-13T03:16:07;10.60;;;2.17;;
50759;SDS011;36733;48.442;-4.470;2023-07-13T03:18:33;8.27;;;2.05;;
50759;SDS011;36733;48.442;-4.470;2023-07-13T03:20:58;8.13;;;2.27;;
50759;SDS011;36733;48.442;-4.470;2023-07-13T03:23:24;6.97;;;2.10;;
50759;SDS011;36733;48.442;-4.470;2023-07-13T03:25:50;8.30;;;1.95;;
50759;SDS011;36733;48.442;-4.470;2023-07-13T03:28:15;12.00;;;2.35;;
50759;SDS011;36733;48.442;-4.470;2023-07-13T03:30:41;7.13;;;2.10;;
50759;SDS011;36733;48.442;-4.470;2023-07-13T03:33:06;11.75;;;2.25;;
50759;SDS011;36733;48.442;-4.470;2023-07-13T03:35:33;8.05;;;1.92;;
50759;SDS011;36733;48.442;-4.470;2023-07-13T03:37:59;7.65;;;1.77;;
50759;SDS011;36733;48.442;-4.470;2023-07-13T03:40:25;10.23;;;2.50;;
50759;SDS011;36733;48.442;-4.470;2023-07-13T03:42:52;7.88;;;1.60;;
50759;SDS011;36733;48.442;-4.470;2023-07-13T03:45:18;7.57;;;2.13;;
50759;SDS011;36733;48.442;-4.470;2023-07-13T03:47:44;9.52;;;2.45;;
50759;SDS011;36733;48.442;-4.470;2023-07-13T03:50:09;8.63;;;2.20;;
50759;SDS011;36733;48.442;-4.470;2023-07-13T03:52:35;11.35;;;2.10;;
50759;SDS011;36733;48.442;-4.470;2023-07-13T03:55:01;8.73;;;2.00;;
50759;SDS011;36733;48.442;-4.470;2023-07-13T03:57:26;10.63;;;2.50;;
50759;SDS011;36733;48.442;-4.470;2023-07-13T03:59:52;10.13;;;2.47;;
50759;SDS011;36733;48.442;-4.470;2023-07-13T04:02:17;8.03;;;2.27;;
50759;SDS011;36733;48.442;-4.470;2023-07-13T04:04:43;10.48;;;2.65;;
50759;SDS011;36733;48.442;-4.470;2023-07-13T04:07:08;12.13;;;2.90;;
50759;SDS011;36733;48.442;-4.470;2023-07-13T04:09:34;13.17;;;2.97;;
50759;SDS011;36733;48.442;-4.470;2023-07-13T04:12:00;16.83;;;3.72;;
50759;SDS011;36733;48.442;-4.470;2023-07-13T04:14:25;15.57;;;3.10;;
50759;SDS011;36733;48.442;-4.470;2023-07-13T04:16:51;12.67;;;2.53;;
50759;SDS011;36733;48.442;-4.470;2023-07-13T04:19:16;12.27;;;3.73;;
50759;SDS011;36733;48.442;-4.470;2023-07-13T04:21:42;11.70;;;2.73;;
50759;SDS011;36733;48.442;-4.470;2023-07-13T04:24:07;8.90;;;2.57;;
50759;SDS011;36733;48.442;-4.470;2023-07-13T04:26:32;11.90;;;2.83;;
50759;SDS011;36733;48.442;-4.470;2023-07-13T04:29:00;13.13;;;3.10;;
50759;SDS011;36733;48.442;-4.470;2023-07-13T04:31:28;14.63;;;3.05;;
50759;SDS011;36733;48.442;-4.470;2023-07-13T04:33:53;6.83;;;2.20;;
50759;SDS011;36733;48.442;-4.470;2023-07-13T04:36:19;16.03;;;3.40;;
50759;SDS011;36733;48.442;-4.470;2023-07-13T04:38:44;13.80;;;3.25;;
50759;SDS011;36733;48.442;-4.470;2023-07-13T04:41:10;13.77;;;2.87;;
50759;SDS011;36733;48.442;-4.470;2023-07-13T04:43:36;10.80;;;2.80;;
50759;SDS011;36733;48.442;-4.470;2023-07-13T04:46:05;11.27;;;2.58;;
50759;SDS011;36733;48.442;-4.470;2023-07-13T04:48:32;11.85;;;2.50;;
50759;SDS011;36733;48.442;-4.470;2023-07-13T04:50:58;7.40;;;2.25;;
50759;SDS011;36733;48.442;-4.470;2023-07-13T04:53:23;12.15;;;2.97;;
50759;SDS011;36733;48.442;-4.470;2023-07-13T04:55:49;12.63;;;2.83;;
50759;SDS011;36733;48.442;-4.470;2023-07-13T04:58:15;8.90;;;2.27;;
50759;SDS011;36733;48.442;-4.470;2023-07-13T05:00:40;12.87;;;2.73;;
50759;SDS011;36733;48.442;-4.470;2023-07-13T05:03:06;17.30;;;3.23;;
50759;SDS011;36733;48.442;-4.470;2023-07-13T05:05:31;16.53;;;3.27;;
50759;SDS011;36733;48.442;-4.470;2023-07-13T05:07:57;13.68;;;3.10;;
50759;SDS011;36733;48.442;-4.470;2023-07-13T05:10:22;11.67;;;2.87;;
50759;SDS011;36733;48.442;-4.470;2023-07-13T05:12:48;12.27;;;2.63;;
50759;SDS011;36733;48.442;-4.470;2023-07-13T05:15:14;11.57;;;2.80;;
50759;SDS011;36733;48.442;-4.470;2023-07-13T05:17:39;13.73;;;3.00;;
50759;SDS011;36733;48.442;-4.470;2023-07-13T05:20:06;13.20;;;3.17;;
50759;SDS011;36733;48.442;-4.470;2023-07-13T05:22:32;10.55;;;2.90;;
50759;SDS011;36733;48.442;-4.470;2023-07-13T05:25:00;14.07;;;3.22;;
50759;SDS011;36733;48.442;-4.470;2023-07-13T05:27:26;16.17;;;2.70;;
50759;SDS011;36733;48.442;-4.470;2023-07-13T05:29:51;11.67;;;2.90;;
50759;SDS011;36733;48.442;-4.470;2023-07-13T05:32:17;13.60;;;3.23;;
50759;SDS011;36733;48.442;-4.470;2023-07-13T05:34:43;7.55;;;2.35;;
50759;SDS011;36733;48.442;-4.470;2023-07-13T05:37:09;19.67;;;3.10;;
50759;SDS011;36733;48.442;-4.470;2023-07-13T05:39:34;8.50;;;2.03;;
50759;SDS011;36733;48.442;-4.470;2023-07-13T05:41:59;9.50;;;2.50;;
50759;SDS011;36733;48.442;-4.470;2023-07-13T05:44:25;13.27;;;2.90;;
50759;SDS011;36733;48.442;-4.470;2023-07-13T05:46:50;8.63;;;2.10;;
50759;SDS011;36733;48.442;-4.470;2023-07-13T05:49:16;15.33;;;3.03;;
50759;SDS011;36733;48.442;-4.470;2023-07-13T05:51:41;12.27;;;3.00;;
50759;SDS011;36733;48.442;-4.470;2023-07-13T05:54:06;12.53;;;2.67;;
50759;SDS011;36733;48.442;-4.470;2023-07-13T05:56:32;17.13;;;2.43;;
50759;SDS011;36733;48.442;-4.470;2023-07-13T05:58:57;9.20;;;2.67;;
50759;SDS011;36733;48.442;-4.470;2023-07-13T06:01:23;9.83;;;2.33;;
50759;SDS011;36733;48.442;-4.470;2023-07-13T06:03:48;11.67;;;2.80;;
50759;SDS011;36733;48.442;-4.470;2023-07-13T06:06:14;7.90;;;3.17;;
50759;SDS011;36733;48.442;-4.470;2023-07-13T06:11:24;15.38;;;3.03;;
50759;SDS011;36733;48.442;-4.470;2023-07-13T06:13:51;14.02;;;2.83;;
50759;SDS011;36733;48.442;-4.470;2023-07-13T06:16:16;15.03;;;2.50;;
50759;SDS011;36733;48.442;-4.470;2023-07-13T06:18:43;23.23;;;3.72;;
50759;SDS011;36733;48.442;-4.470;2023-07-13T06:21:18;11.75;;;2.95;;
50759;SDS011;36733;48.442;-4.470;2023-07-13T06:23:45;5.20;;;2.10;;
50759;SDS011;36733;48.442;-4.470;2023-07-13T06:26:13;7.15;;;2.30;;
50759;SDS011;36733;48.442;-4.470;2023-07-13T06:28:38;9.50;;;2.55;;
50759;SDS011;36733;48.442;-4.470;2023-07-13T06:31:06;7.07;;;2.40;;
50759;SDS011;36733;48.442;-4.470;2023-07-13T06:33:32;3.65;;;1.52;;
50759;SDS011;36733;48.442;-4.470;2023-07-13T06:35:58;7.05;;;2.05;;
50759;SDS011;36733;48.442;-4.470;2023-07-13T06:38:24;4.83;;;1.80;;
50759;SDS011;36733;48.442;-4.470;2023-07-13T06:40:49;5.80;;;2.07;;
50759;SDS011;36733;48.442;-4.470;2023-07-13T06:43:15;6.47;;;2.17;;
50759;SDS011;36733;48.442;-4.470;2023-07-13T06:45:41;4.47;;;2.10;;
50759;SDS011;36733;48.442;-4.470;2023-07-13T06:48:11;7.90;;;2.20;;
50759;SDS011;36733;48.442;-4.470;2023-07-13T06:50:36;9.95;;;2.47;;
50759;SDS011;36733;48.442;-4.470;2023-07-13T06:53:02;6.63;;;2.10;;
50759;SDS011;36733;48.442;-4.470;2023-07-13T06:55:27;4.87;;;2.23;;
50759;SDS011;36733;48.442;-4.470;2023-07-13T06:57:53;6.67;;;1.83;;
50759;SDS011;36733;48.442;-4.470;2023-07-13T07:00:18;4.13;;;1.80;;
50759;SDS011;36733;48.442;-4.470;2023-07-13T07:02:44;4.17;;;1.87;;
50759;SDS011;36733;48.442;-4.470;2023-07-13T07:05:09;3.60;;;1.63;;
50759;SDS011;36733;48.442;-4.470;2023-07-13T07:07:35;10.37;;;2.23;;
50759;SDS011;36733;48.442;-4.470;2023-07-13T07:10:00;6.07;;;2.23;;
50759;SDS011;36733;48.442;-4.470;2023-07-13T07:12:26;6.67;;;2.00;;
50759;SDS011;36733;48.442;-4.470;2023-07-13T07:14:51;8.27;;;2.47;;
50759;SDS011;36733;48.442;-4.470;2023-07-13T07:17:16;5.97;;;2.20;;
50759;SDS011;36733;48.442;-4.470;2023-07-13T07:19:42;8.97;;;2.60;;
50759;SDS011;36733;48.442;-4.470;2023-07-13T07:22:07;4.43;;;1.90;;
50759;SDS011;36733;48.442;-4.470;2023-07-13T07:24:33;6.20;;;2.27;;
50759;SDS011;36733;48.442;-4.470;2023-07-13T07:26:58;10.93;;;2.70;;
50759;SDS011;36733;48.442;-4.470;2023-07-13T07:29:24;6.77;;;2.30;;
50759;SDS011;36733;48.442;-4.470;2023-07-13T07:31:51;6.15;;;2.10;;
50759;SDS011;36733;48.442;-4.470;2023-07-13T07:34:17;9.90;;;2.22;;
50759;SDS011;36733;48.442;-4.470;2023-07-13T07:36:42;9.07;;;2.33;;
50759;SDS011;36733;48.442;-4.470;2023-07-13T07:39:08;8.60;;;2.17;;
50759;SDS011;36733;48.442;-4.470;2023-07-13T07:41:33;8.70;;;2.27;;
50759;SDS011;36733;48.442;-4.470;2023-07-13T07:43:59;6.57;;;2.27;;
50759;SDS011;36733;48.442;-4.470;2023-07-13T07:46:24;8.03;;;2.30;;
50759;SDS011;36733;48.442;-4.470;2023-07-13T07:48:50;7.80;;;2.50;;
50759;SDS011;36733;48.442;-4.470;2023-07-13T07:51:15;8.47;;;2.20;;
50759;SDS011;36733;48.442;-4.470;2023-07-13T07:53:41;9.97;;;3.13;;
50759;SDS011;36733;48.442;-4.470;2023-07-13T07:56:06;9.35;;;3.60;;
50759;SDS011;36733;48.442;-4.470;2023-07-13T07:58:32;8.07;;;2.13;;
50759;SDS011;36733;48.442;-4.470;2023-07-13T08:01:06;9.53;;;2.83;;
50759;SDS011;36733;48.442;-4.470;2023-07-13T08:03:31;6.30;;;2.28;;
50759;SDS011;36733;48.442;-4.470;2023-07-13T08:05:57;7.35;;;2.28;;
50759;SDS011;36733;48.442;-4.470;2023-07-13T08:08:23;11.70;;;2.35;;
50759;SDS011;36733;48.442;-4.470;2023-07-13T08:10:49;8.20;;;2.13;;
50759;SDS011;36733;48.442;-4.470;2023-07-13T08:13:14;6.23;;;2.20;;
50759;SDS011;36733;48.442;-4.470;2023-07-13T08:15:40;7.53;;;2.37;;
50759;SDS011;36733;48.442;-4.470;2023-07-13T08:18:05;4.77;;;1.90;;
50759;SDS011;36733;48.442;-4.470;2023-07-13T08:20:32;7.25;;;2.40;;
50759;SDS011;36733;48.442;-4.470;2023-07-13T08:22:58;6.13;;;2.13;;
50759;SDS011;36733;48.442;-4.470;2023-07-13T08:25:24;7.10;;;2.55;;
50759;SDS011;36733;48.442;-4.470;2023-07-13T08:27:49;8.30;;;2.30;;
50759;SDS011;36733;48.442;-4.470;2023-07-13T08:30:15;3.77;;;1.87;;
50759;SDS011;36733;48.442;-4.470;2023-07-13T08:32:40;8.77;;;2.40;;
50759;SDS011;36733;48.442;-4.470;2023-07-13T08:35:05;5.10;;;2.10;;
50759;SDS011;36733;48.442;-4.470;2023-07-13T08:37:31;5.43;;;1.98;;
50759;SDS011;36733;48.442;-4.470;2023-07-13T08:39:57;6.63;;;2.10;;
50759;SDS011;36733;48.442;-4.470;2023-07-13T08:47:36;8.02;;;2.08;;
50759;SDS011;36733;48.442;-4.470;2023-07-13T08:50:04;7.22;;;1.90;;
50759;SDS011;36733;48.442;-4.470;2023-07-13T08:52:35;3.80;;;1.63;;
50759;SDS011;36733;48.442;-4.470;2023-07-13T08:55:09;7.95;;;2.13;;
50759;SDS011;36733;48.442;-4.470;2023-07-13T08:57:38;7.03;;;2.20;;
50759;SDS011;36733;48.442;-4.470;2023-07-13T09:00:05;10.55;;;2.40;;
50759;SDS011;36733;48.442;-4.470;2023-07-13T09:05:25;3.78;;;1.73;;
50759;SDS011;36733;48.442;-4.470;2023-07-13T09:10:31;11.23;;;2.30;;
50759;SDS011;36733;48.442;-4.470;2023-07-13T09:15:49;4.95;;;2.28;;
50759;SDS011;36733;48.442;-4.470;2023-07-13T09:21:00;4.95;;;2.33;;
50759;SDS011;36733;48.442;-4.470;2023-07-13T09:23:29;6.35;;;2.17;;
50759;SDS011;36733;48.442;-4.470;2023-07-13T09:28:28;4.25;;;2.00;;
50759;SDS011;36733;48.442;-4.470;2023-07-13T09:33:35;6.65;;;2.25;;
50759;SDS011;36733;48.442;-4.470;2023-07-13T09:36:01;5.93;;;1.90;;
50759;SDS011;36733;48.442;-4.470;2023-07-13T09:38:27;4.47;;;1.65;;
50759;SDS011;36733;48.442;-4.470;2023-07-13T09:43:36;7.60;;;2.00;;
50759;SDS011;36733;48.442;-4.470;2023-07-13T09:46:01;7.90;;;2.30;;
50759;SDS011;36733;48.442;-4.470;2023-07-13T09:48:33;6.43;;;1.90;;
50759;SDS011;36733;48.442;-4.470;2023-07-13T09:51:01;11.10;;;2.67;;
50759;SDS011;36733;48.442;-4.470;2023-07-13T09:53:32;4.80;;;1.70;;
50759;SDS011;36733;48.442;-4.470;2023-07-13T09:55:57;5.93;;;1.60;;
50759;SDS011;36733;48.442;-4.470;2023-07-13T09:58:25;8.57;;;1.95;;
50759;SDS011;36733;48.442;-4.470;2023-07-13T10:01:00;7.97;;;2.00;;
50759;SDS011;36733;48.442;-4.470;2023-07-13T10:03:34;7.13;;;1.58;;
50759;SDS011;36733;48.442;-4.470;2023-07-13T10:08:37;5.03;;;1.80;;
50759;SDS011;36733;48.442;-4.470;2023-07-13T10:11:10;9.03;;;1.80;;
50759;SDS011;36733;48.442;-4.470;2023-07-13T10:13:40;8.65;;;2.00;;
50759;SDS011;36733;48.442;-4.470;2023-07-13T10:16:08;5.60;;;1.90;;
50759;SDS011;36733;48.442;-4.470;2023-07-13T10:19:17;5.85;;;2.08;;
50759;SDS011;36733;48.442;-4.470;2023-07-13T10:21:26;13.68;;;2.60;;
50759;SDS011;36733;48.442;-4.470;2023-07-13T10:23:55;8.27;;;2.00;;
50759;SDS011;36733;48.442;-4.470;2023-07-13T10:26:33;6.60;;;1.60;;
50759;SDS011;36733;48.442;-4.470;2023-07-13T10:29:07;5.65;;;1.75;;
50759;SDS011;36733;48.442;-4.470;2023-07-13T10:31:36;6.50;;;2.28;;
50759;SDS011;36733;48.442;-4.470;2023-07-13T10:36:34;8.82;;;1.95;;
50759;SDS011;36733;48.442;-4.470;2023-07-13T10:39:09;5.90;;;1.65;;
50759;SDS011;36733;48.442;-4.470;2023-07-13T10:41:40;9.63;;;2.85;;
50759;SDS011;36733;48.442;-4.470;2023-07-13T10:44:11;5.22;;;1.77;;
50759;SDS011;36733;48.442;-4.470;2023-07-13T10:46:43;8.48;;;2.17;;
50759;SDS011;36733;48.442;-4.470;2023-07-13T10:49:10;9.65;;;2.95;;
50759;SDS011;36733;48.442;-4.470;2023-07-13T10:51:36;7.60;;;2.45;;
50759;SDS011;36733;48.442;-4.470;2023-07-13T10:56:45;12.38;;;3.08;;
50759;SDS011;36733;48.442;-4.470;2023-07-13T10:59:23;9.93;;;2.72;;
50759;SDS011;36733;48.442;-4.470;2023-07-13T11:02:08;16.58;;;3.00;;
50759;SDS011;36733;48.442;-4.470;2023-07-13T11:04:40;7.07;;;1.90;;
50759;SDS011;36733;48.442;-4.470;2023-07-13T11:07:16;6.95;;;2.22;;
50759;SDS011;36733;48.442;-4.470;2023-07-13T11:19:53;7.00;;;1.90;;
50759;SDS011;36733;48.442;-4.470;2023-07-13T11:22:42;5.18;;;1.83;;
50759;SDS011;36733;48.442;-4.470;2023-07-13T11:25:31;16.25;;;4.47;;
50759;SDS011;36733;48.442;-4.470;2023-07-13T11:38:16;5.10;;;1.80;;
50759;SDS011;36733;48.442;-4.470;2023-07-13T11:40:44;4.70;;;1.67;;
50759;SDS011;36733;48.442;-4.470;2023-07-13T11:43:13;5.40;;;1.42;;
50759;SDS011;36733;48.442;-4.470;2023-07-13T11:45:40;4.00;;;1.40;;
50759;SDS011;36733;48.442;-4.470;2023-07-13T11:48:17;4.93;;;1.27;;
50759;SDS011;36733;48.442;-4.470;2023-07-13T11:50:49;5.95;;;1.38;;
50759;SDS011;36733;48.442;-4.470;2023-07-13T11:53:16;2.17;;;1.10;;
50759;SDS011;36733;48.442;-4.470;2023-07-13T11:55:42;3.03;;;1.30;;
50759;SDS011;36733;48.442;-4.470;2023-07-13T11:58:07;5.07;;;1.30;;
50759;SDS011;36733;48.442;-4.470;2023-07-13T12:00:34;3.53;;;1.10;;
50759;SDS011;36733;48.442;-4.470;2023-07-13T12:03:00;3.65;;;1.30;;
50759;SDS011;36733;48.442;-4.470;2023-07-13T12:05:27;3.60;;;1.70;;
50759;SDS011;36733;48.442;-4.470;2023-07-13T12:07:54;7.68;;;1.40;;
50759;SDS011;36733;48.442;-4.470;2023-07-13T12:10:24;4.68;;;1.38;;
50759;SDS011;36733;48.442;-4.470;2023-07-13T12:15:23;2.75;;;1.10;;
50759;SDS011;36733;48.442;-4.470;2023-07-13T12:17:52;4.75;;;1.45;;
50759;SDS011;36733;48.442;-4.470;2023-07-13T12:20:21;3.70;;;1.40;;
50759;SDS011;36733;48.442;-4.470;2023-07-13T12:22:50;2.65;;;1.15;;
50759;SDS011;36733;48.442;-4.470;2023-07-13T12:25:16;5.43;;;1.23;;
50759;SDS011;36733;48.442;-4.470;2023-07-13T12:27:42;2.78;;;1.10;;
50759;SDS011;36733;48.442;-4.470;2023-07-13T12:30:32;5.78;;;1.40;;
50759;SDS011;36733;48.442;-4.470;2023-07-13T12:35:30;4.13;;;1.20;;
50759;SDS011;36733;48.442;-4.470;2023-07-13T12:37:56;7.60;;;1.52;;
50759;SDS011;36733;48.442;-4.470;2023-07-13T12:40:25;2.45;;;1.00;;
50759;SDS011;36733;48.442;-4.470;2023-07-13T12:42:54;4.28;;;1.30;;
50759;SDS011;36733;48.442;-4.470;2023-07-13T12:45:24;3.33;;;1.05;;
50759;SDS011;36733;48.442;-4.470;2023-07-13T12:48:03;4.38;;;1.10;;
50759;SDS011;36733;48.442;-4.470;2023-07-13T12:50:37;2.20;;;1.02;;
50759;SDS011;36733;48.442;-4.470;2023-07-13T12:53:21;3.38;;;1.30;;
50759;SDS011;36733;48.442;-4.470;2023-07-13T12:56:08;1.77;;;1.13;;
50759;SDS011;36733;48.442;-4.470;2023-07-13T12:58:41;3.15;;;1.17;;
50759;SDS011;36733;48.442;-4.470;2023-07-13T13:01:09;2.67;;;1.00;;
50759;SDS011;36733;48.442;-4.470;2023-07-13T13:03:38;2.17;;;1.08;;
50759;SDS011;36733;48.442;-4.470;2023-07-13T13:06:17;2.53;;;1.17;;
50759;SDS011;36733;48.442;-4.470;2023-07-13T13:08:55;3.25;;;1.08;;
50759;SDS011;36733;48.442;-4.470;2023-07-13T13:11:23;2.20;;;1.25;;
50759;SDS011;36733;48.442;-4.470;2023-07-13T13:13:51;2.47;;;0.98;;
50759;SDS011;36733;48.442;-4.470;2023-07-13T13:19:29;1.33;;;0.73;;
50759;SDS011;36733;48.442;-4.470;2023-07-13T13:21:55;3.42;;;0.77;;
50759;SDS011;36733;48.442;-4.470;2023-07-13T13:24:23;3.15;;;0.80;;
50759;SDS011;36733;48.442;-4.470;2023-07-13T13:26:51;3.90;;;1.20;;
50759;SDS011;36733;48.442;-4.470;2023-07-13T13:29:22;1.70;;;0.98;;
50759;SDS011;36733;48.442;-4.470;2023-07-13T13:31:51;2.42;;;1.00;;
50759;SDS011;36733;48.442;-4.470;2023-07-13T13:34:18;2.05;;;0.90;;
50759;SDS011;36733;48.442;-4.470;2023-07-13T13:36:46;3.53;;;1.17;;
50759;SDS011;36733;48.442;-4.470;2023-07-13T13:41:52;3.47;;;1.10;;
50759;SDS011;36733;48.442;-4.470;2023-07-13T13:44:18;3.00;;;1.00;;
50759;SDS011;36733;48.442;-4.470;2023-07-13T13:46:45;2.47;;;0.85;;
50759;SDS011;36733;48.442;-4.470;2023-07-13T13:49:16;4.55;;;1.17;;
50759;SDS011;36733;48.442;-4.470;2023-07-13T13:51:46;1.80;;;1.10;;
50759;SDS011;36733;48.442;-4.470;2023-07-13T13:54:12;2.90;;;1.00;;
50759;SDS011;36733;48.442;-4.470;2023-07-13T13:56:40;1.98;;;0.82;;
50759;SDS011;36733;48.442;-4.470;2023-07-13T13:59:07;4.78;;;1.00;;
50759;SDS011;36733;48.442;-4.470;2023-07-13T14:01:33;6.35;;;1.40;;
50759;SDS011;36733;48.442;-4.470;2023-07-13T14:03:59;3.13;;;1.13;;
50759;SDS011;36733;48.442;-4.470;2023-07-13T14:06:24;2.30;;;1.10;;
50759;SDS011;36733;48.442;-4.470;2023-07-13T14:08:50;4.38;;;1.58;;
50759;SDS011;36733;48.442;-4.470;2023-07-13T14:13:45;4.00;;;1.30;;
50759;SDS011;36733;48.442;-4.470;2023-07-13T14:16:17;3.53;;;1.55;;
50759;SDS011;36733;48.442;-4.470;2023-07-13T14:18:44;2.47;;;1.30;;
50759;SDS011;36733;48.442;-4.470;2023-07-13T14:21:11;4.90;;;2.00;;
50759;SDS011;36733;48.442;-4.470;2023-07-13T14:23:39;3.67;;;1.75;;
50759;SDS011;36733;48.442;-4.470;2023-07-13T14:26:08;4.97;;;1.65;;
50759;SDS011;36733;48.442;-4.470;2023-07-13T14:28:38;2.85;;;1.30;;
50759;SDS011;36733;48.442;-4.470;2023-07-13T14:31:08;4.53;;;1.50;;
50759;SDS011;36733;48.442;-4.470;2023-07-13T14:33:34;2.92;;;1.73;;
50759;SDS011;36733;48.442;-4.470;2023-07-13T14:38:25;3.50;;;1.48;;
50759;SDS011;36733;48.442;-4.470;2023-07-13T14:43:16;2.67;;;1.42;;
50759;SDS011;36733;48.442;-4.470;2023-07-13T14:45:44;3.30;;;1.50;;
50759;SDS011;36733;48.442;-4.470;2023-07-13T14:48:19;3.22;;;1.70;;
50759;SDS011;36733;48.442;-4.470;2023-07-13T14:50:46;6.60;;;1.80;;
50759;SDS011;36733;48.442;-4.470;2023-07-13T14:55:37;7.05;;;1.98;;
50759;SDS011;36733;48.442;-4.470;2023-07-13T15:00:28;5.22;;;1.90;;
50759;SDS011;36733;48.442;-4.470;2023-07-13T15:05:24;4.78;;;1.63;;
50759;SDS011;36733;48.442;-4.470;2023-07-13T15:07:57;6.43;;;1.60;;
50759;SDS011;36733;48.442;-4.470;2023-07-13T15:10:25;3.85;;;1.60;;
50759;SDS011;36733;48.442;-4.470;2023-07-13T15:12:58;5.68;;;1.77;;
50759;SDS011;36733;48.442;-4.470;2023-07-13T15:15:27;4.63;;;1.70;;
50759;SDS011;36733;48.442;-4.470;2023-07-13T15:17:53;6.57;;;1.42;;
50759;SDS011;36733;48.442;-4.470;2023-07-13T15:22:47;3.35;;;1.38;;
50759;SDS011;36733;48.442;-4.470;2023-07-13T15:27:43;1.95;;;1.42;;
50759;SDS011;36733;48.442;-4.470;2023-07-13T15:32:34;2.63;;;1.17;;
50759;SDS011;36733;48.442;-4.470;2023-07-13T15:34:59;4.70;;;1.58;;
50759;SDS011;36733;48.442;-4.470;2023-07-13T15:37:25;5.88;;;1.40;;
50759;SDS011;36733;48.442;-4.470;2023-07-13T15:42:16;2.55;;;1.50;;
50759;SDS011;36733;48.442;-4.470;2023-07-13T15:44:42;4.80;;;1.70;;
50759;SDS011;36733;48.442;-4.470;2023-07-13T15:47:13;3.63;;;1.50;;
50759;SDS011;36733;48.442;-4.470;2023-07-13T15:49:40;5.10;;;1.85;;
50759;SDS011;36733;48.442;-4.470;2023-07-13T15:52:11;5.47;;;1.80;;
50759;SDS011;36733;48.442;-4.470;2023-07-13T15:54:45;4.32;;;1.65;;
50759;SDS011;36733;48.442;-4.470;2023-07-13T15:57:12;4.75;;;1.50;;
50759;SDS011;36733;48.442;-4.470;2023-07-13T15:59:38;5.65;;;1.95;;
50759;SDS011;36733;48.442;-4.470;2023-07-13T16:02:13;3.92;;;1.77;;
50759;SDS011;36733;48.442;-4.470;2023-07-13T16:04:42;8.38;;;1.83;;
50759;SDS011;36733;48.442;-4.470;2023-07-13T16:07:09;7.78;;;2.17;;